sensor_id;sensor_type;location;lat;lon;timestamp;P1;durP1;ratioP1;P2;durP2;ratioP2
34497;SDS011;20744;50.938;7.286;2023-05-10T00:00:34;14.63;;;5.85;;
34497;SDS011;20744;50.938;7.286;2023-05-10T00:03:02;12.27;;;7.25;;
34497;SDS011;20744;50.938;7.286;2023-05-10T00:05:30;9.98;;;6.65;;
34497;SDS011;20744;50.938;7.286;2023-05-10T00:07:57;11.77;;;6.25;;
34497;SDS011;20744;50.938;7.286;2023-05-10T00:10:24;10.38;;;5.90;;
34497;SDS011;20744;50.938;7.286;2023-05-10T00:12:53;9.13;;;5.72;;
34497;SDS011;20744;50.938;7.286;2023-05-10T00:15:20;7.85;;;6.43;;
34497;SDS011;20744;50.938;7.286;2023-05-10T00:17:48;11.43;;;7.00;;
34497;SDS011;20744;50.938;7.286;2023-05-10T00:20:15;15.13;;;7.25;;
34497;SDS011;20744;50.938;7.286;2023-05-10T00:22:42;9.32;;;7.38;;
34497;SDS011;20744;50.938;7.286;2023-05-10T00:25:09;10.02;;;6.55;;
34497;SDS011;20744;50.938;7.286;2023-05-10T00:27:36;10.38;;;6.82;;
34497;SDS011;20744;50.938;7.286;2023-05-10T00:30:06;16.25;;;7.18;;
34497;SDS011;20744;50.938;7.286;2023-05-10T00:32:33;14.55;;;7.32;;
34497;SDS011;20744;50.938;7.286;2023-05-10T00:35:00;15.27;;;7.32;;
34497;SDS011;20744;50.938;7.286;2023-05-10T00:37:28;11.70;;;7.22;;
34497;SDS011;20744;50.938;7.286;2023-05-10T00:39:55;9.32;;;7.20;;
34497;SDS011;20744;50.938;7.286;2023-05-10T00:42:22;12.10;;;8.10;;
34497;SDS011;20744;50.938;7.286;2023-05-10T00:44:50;11.63;;;8.50;;
34497;SDS011;20744;50.938;7.286;2023-05-10T00:47:18;11.68;;;8.20;;
34497;SDS011;20744;50.938;7.286;2023-05-10T00:49:45;15.40;;;8.82;;
34497;SDS011;20744;50.938;7.286;2023-05-10T00:52:13;13.50;;;8.35;;
34497;SDS011;20744;50.938;7.286;2023-05-10T00:54:40;16.08;;;8.70;;
34497;SDS011;20744;50.938;7.286;2023-05-10T00:57:07;12.48;;;8.95;;
34497;SDS011;20744;50.938;7.286;2023-05-10T00:59:35;18.90;;;9.60;;
34497;SDS011;20744;50.938;7.286;2023-05-10T01:02:02;13.38;;;9.63;;
34497;SDS011;20744;50.938;7.286;2023-05-10T01:04:31;15.43;;;9.77;;
34497;SDS011;20744;50.938;7.286;2023-05-10T01:06:58;20.10;;;10.20;;
34497;SDS011;20744;50.938;7.286;2023-05-10T01:15:18;15.20;;;9.90;;
34497;SDS011;20744;50.938;7.286;2023-05-10T01:17:47;14.02;;;10.27;;
34497;SDS011;20744;50.938;7.286;2023-05-10T01:20:16;18.67;;;9.93;;
34497;SDS011;20744;50.938;7.286;2023-05-10T01:22:55;17.38;;;10.68;;
34497;SDS011;20744;50.938;7.286;2023-05-10T01:25:45;14.75;;;10.18;;
34497;SDS011;20744;50.938;7.286;2023-05-10T01:28:37;16.15;;;10.48;;
34497;SDS011;20744;50.938;7.286;2023-05-10T01:31:07;18.98;;;11.43;;
34497;SDS011;20744;50.938;7.286;2023-05-10T01:33:38;20.20;;;11.68;;
34497;SDS011;20744;50.938;7.286;2023-05-10T01:36:08;18.30;;;11.93;;
34497;SDS011;20744;50.938;7.286;2023-05-10T01:38:38;20.08;;;12.13;;
34497;SDS011;20744;50.938;7.286;2023-05-10T01:41:07;19.13;;;12.20;;
34497;SDS011;20744;50.938;7.286;2023-05-10T01:43:43;23.97;;;13.73;;
34497;SDS011;20744;50.938;7.286;2023-05-10T01:46:14;25.67;;;13.73;;
34497;SDS011;20744;50.938;7.286;2023-05-10T01:48:46;21.00;;;12.48;;
34497;SDS011;20744;50.938;7.286;2023-05-10T01:51:15;22.25;;;12.70;;
34497;SDS011;20744;50.938;7.286;2023-05-10T01:53:44;24.42;;;13.02;;
34497;SDS011;20744;50.938;7.286;2023-05-10T01:56:11;20.73;;;12.82;;
34497;SDS011;20744;50.938;7.286;2023-05-10T01:58:39;25.23;;;14.50;;
34497;SDS011;20744;50.938;7.286;2023-05-10T02:01:08;22.88;;;14.30;;
34497;SDS011;20744;50.938;7.286;2023-05-10T02:03:36;26.52;;;15.48;;
34497;SDS011;20744;50.938;7.286;2023-05-10T02:06:06;24.17;;;15.10;;
34497;SDS011;20744;50.938;7.286;2023-05-10T02:08:34;27.63;;;14.73;;
34497;SDS011;20744;50.938;7.286;2023-05-10T02:11:03;28.50;;;14.65;;
34497;SDS011;20744;50.938;7.286;2023-05-10T02:13:30;37.85;;;16.35;;
34497;SDS011;20744;50.938;7.286;2023-05-10T02:15:58;26.27;;;15.52;;
34497;SDS011;20744;50.938;7.286;2023-05-10T02:18:26;28.08;;;15.73;;
34497;SDS011;20744;50.938;7.286;2023-05-10T02:20:55;28.80;;;15.32;;
34497;SDS011;20744;50.938;7.286;2023-05-10T02:23:23;33.50;;;16.40;;
34497;SDS011;20744;50.938;7.286;2023-05-10T02:25:52;31.33;;;15.55;;
34497;SDS011;20744;50.938;7.286;2023-05-10T02:28:21;30.98;;;14.55;;
34497;SDS011;20744;50.938;7.286;2023-05-10T02:30:48;30.30;;;15.30;;
34497;SDS011;20744;50.938;7.286;2023-05-10T02:33:16;25.17;;;15.07;;
34497;SDS011;20744;50.938;7.286;2023-05-10T02:35:43;34.05;;;15.95;;
34497;SDS011;20744;50.938;7.286;2023-05-10T02:38:10;27.38;;;14.60;;
34497;SDS011;20744;50.938;7.286;2023-05-10T02:40:41;27.98;;;15.43;;
34497;SDS011;20744;50.938;7.286;2023-05-10T02:43:11;31.70;;;16.00;;
34497;SDS011;20744;50.938;7.286;2023-05-10T02:45:39;27.02;;;15.82;;
34497;SDS011;20744;50.938;7.286;2023-05-10T02:48:07;35.55;;;16.33;;
34497;SDS011;20744;50.938;7.286;2023-05-10T02:50:34;32.90;;;16.73;;
34497;SDS011;20744;50.938;7.286;2023-05-10T02:53:03;31.20;;;16.90;;
34497;SDS011;20744;50.938;7.286;2023-05-10T02:55:32;24.27;;;12.60;;
34497;SDS011;20744;50.938;7.286;2023-05-10T02:58:03;18.52;;;11.48;;
34497;SDS011;20744;50.938;7.286;2023-05-10T03:00:30;24.50;;;13.63;;
34497;SDS011;20744;50.938;7.286;2023-05-10T03:02:58;18.15;;;10.00;;
34497;SDS011;20744;50.938;7.286;2023-05-10T03:05:25;15.07;;;10.25;;
34497;SDS011;20744;50.938;7.286;2023-05-10T03:07:52;15.35;;;10.20;;
34497;SDS011;20744;50.938;7.286;2023-05-10T03:10:21;13.88;;;9.63;;
34497;SDS011;20744;50.938;7.286;2023-05-10T03:12:57;20.48;;;9.60;;
34497;SDS011;20744;50.938;7.286;2023-05-10T03:15:32;15.60;;;10.10;;
34497;SDS011;20744;50.938;7.286;2023-05-10T03:18:01;17.95;;;10.30;;
34497;SDS011;20744;50.938;7.286;2023-05-10T03:20:32;12.63;;;9.43;;
34497;SDS011;20744;50.938;7.286;2023-05-10T03:23:04;15.77;;;10.02;;
34497;SDS011;20744;50.938;7.286;2023-05-10T03:25:31;18.92;;;9.80;;
34497;SDS011;20744;50.938;7.286;2023-05-10T03:27:59;21.42;;;10.55;;
34497;SDS011;20744;50.938;7.286;2023-05-10T03:30:28;15.65;;;10.68;;
34497;SDS011;20744;50.938;7.286;2023-05-10T03:32:57;18.88;;;11.77;;
34497;SDS011;20744;50.938;7.286;2023-05-10T03:35:24;14.27;;;10.95;;
34497;SDS011;20744;50.938;7.286;2023-05-10T03:37:52;14.13;;;11.32;;
34497;SDS011;20744;50.938;7.286;2023-05-10T03:40:19;15.65;;;10.68;;
34497;SDS011;20744;50.938;7.286;2023-05-10T03:42:46;13.50;;;10.88;;
34497;SDS011;20744;50.938;7.286;2023-05-10T03:45:13;15.55;;;10.20;;
34497;SDS011;20744;50.938;7.286;2023-05-10T03:47:41;16.55;;;10.93;;
34497;SDS011;20744;50.938;7.286;2023-05-10T03:50:09;14.05;;;10.10;;
34497;SDS011;20744;50.938;7.286;2023-05-10T03:52:37;20.58;;;11.18;;
34497;SDS011;20744;50.938;7.286;2023-05-10T03:55:05;13.35;;;10.10;;
34497;SDS011;20744;50.938;7.286;2023-05-10T03:57:32;17.73;;;10.02;;
34497;SDS011;20744;50.938;7.286;2023-05-10T04:00:00;18.50;;;11.23;;
34497;SDS011;20744;50.938;7.286;2023-05-10T04:02:27;18.17;;;12.75;;
34497;SDS011;20744;50.938;7.286;2023-05-10T04:04:55;22.90;;;12.63;;
34497;SDS011;20744;50.938;7.286;2023-05-10T04:07:24;17.67;;;12.10;;
34497;SDS011;20744;50.938;7.286;2023-05-10T04:09:51;17.35;;;13.25;;
34497;SDS011;20744;50.938;7.286;2023-05-10T04:12:18;21.20;;;14.48;;
34497;SDS011;20744;50.938;7.286;2023-05-10T04:14:45;29.50;;;14.18;;
34497;SDS011;20744;50.938;7.286;2023-05-10T04:17:12;28.23;;;16.70;;
34497;SDS011;20744;50.938;7.286;2023-05-10T04:19:40;29.25;;;17.10;;
34497;SDS011;20744;50.938;7.286;2023-05-10T04:22:07;31.15;;;17.05;;
34497;SDS011;20744;50.938;7.286;2023-05-10T04:24:36;25.73;;;17.23;;
34497;SDS011;20744;50.938;7.286;2023-05-10T04:27:03;27.73;;;17.52;;
34497;SDS011;20744;50.938;7.286;2023-05-10T04:29:30;26.00;;;17.75;;
34497;SDS011;20744;50.938;7.286;2023-05-10T04:31:57;43.90;;;21.23;;
34497;SDS011;20744;50.938;7.286;2023-05-10T04:34:25;37.85;;;19.92;;
34497;SDS011;20744;50.938;7.286;2023-05-10T04:36:52;36.22;;;21.02;;
34497;SDS011;20744;50.938;7.286;2023-05-10T04:39:19;33.40;;;19.63;;
34497;SDS011;20744;50.938;7.286;2023-05-10T04:41:48;28.17;;;18.70;;
34497;SDS011;20744;50.938;7.286;2023-05-10T04:44:15;27.65;;;19.25;;
34497;SDS011;20744;50.938;7.286;2023-05-10T04:46:42;35.22;;;20.60;;
34497;SDS011;20744;50.938;7.286;2023-05-10T04:49:09;30.08;;;19.25;;
34497;SDS011;20744;50.938;7.286;2023-05-10T04:51:37;29.38;;;19.35;;
34497;SDS011;20744;50.938;7.286;2023-05-10T04:54:04;29.17;;;18.30;;
34497;SDS011;20744;50.938;7.286;2023-05-10T04:56:31;29.75;;;18.27;;
34497;SDS011;20744;50.938;7.286;2023-05-10T04:59:00;27.45;;;17.67;;
34497;SDS011;20744;50.938;7.286;2023-05-10T05:01:27;28.17;;;17.90;;
34497;SDS011;20744;50.938;7.286;2023-05-10T05:03:54;30.00;;;18.13;;
34497;SDS011;20744;50.938;7.286;2023-05-10T05:06:22;33.70;;;17.83;;
34497;SDS011;20744;50.938;7.286;2023-05-10T05:08:49;26.50;;;16.92;;
34497;SDS011;20744;50.938;7.286;2023-05-10T05:11:17;26.85;;;17.75;;
34497;SDS011;20744;50.938;7.286;2023-05-10T05:13:44;33.53;;;18.48;;
34497;SDS011;20744;50.938;7.286;2023-05-10T05:16:13;31.95;;;17.92;;
34497;SDS011;20744;50.938;7.286;2023-05-10T05:18:40;26.23;;;17.42;;
34497;SDS011;20744;50.938;7.286;2023-05-10T05:21:13;33.90;;;18.08;;
34497;SDS011;20744;50.938;7.286;2023-05-10T05:23:41;31.85;;;17.52;;
34497;SDS011;20744;50.938;7.286;2023-05-10T05:26:08;31.77;;;18.02;;
34497;SDS011;20744;50.938;7.286;2023-05-10T05:28:36;31.05;;;17.92;;
34497;SDS011;20744;50.938;7.286;2023-05-10T05:31:03;33.53;;;18.17;;
34497;SDS011;20744;50.938;7.286;2023-05-10T05:33:32;38.08;;;18.40;;
34497;SDS011;20744;50.938;7.286;2023-05-10T05:36:00;26.35;;;16.15;;
34497;SDS011;20744;50.938;7.286;2023-05-10T05:38:27;26.75;;;15.63;;
34497;SDS011;20744;50.938;7.286;2023-05-10T05:40:54;26.40;;;15.65;;
34497;SDS011;20744;50.938;7.286;2023-05-10T05:43:21;30.65;;;18.05;;
34497;SDS011;20744;50.938;7.286;2023-05-10T05:45:49;31.73;;;15.88;;
34497;SDS011;20744;50.938;7.286;2023-05-10T05:48:16;29.52;;;15.15;;
34497;SDS011;20744;50.938;7.286;2023-05-10T05:50:45;33.47;;;17.13;;
34497;SDS011;20744;50.938;7.286;2023-05-10T05:53:12;33.40;;;17.85;;
34497;SDS011;20744;50.938;7.286;2023-05-10T05:55:40;34.00;;;18.52;;
34497;SDS011;20744;50.938;7.286;2023-05-10T05:58:07;41.72;;;17.95;;
34497;SDS011;20744;50.938;7.286;2023-05-10T06:00:34;41.08;;;18.55;;
34497;SDS011;20744;50.938;7.286;2023-05-10T06:03:01;32.22;;;17.88;;
34497;SDS011;20744;50.938;7.286;2023-05-10T06:05:28;35.65;;;17.85;;
34497;SDS011;20744;50.938;7.286;2023-05-10T06:07:58;40.80;;;18.48;;
34497;SDS011;20744;50.938;7.286;2023-05-10T06:10:26;40.67;;;18.17;;
34497;SDS011;20744;50.938;7.286;2023-05-10T06:12:53;34.03;;;17.00;;
34497;SDS011;20744;50.938;7.286;2023-05-10T06:15:21;38.85;;;18.08;;
34497;SDS011;20744;50.938;7.286;2023-05-10T06:17:48;37.28;;;18.17;;
34497;SDS011;20744;50.938;7.286;2023-05-10T06:20:16;33.42;;;17.30;;
34497;SDS011;20744;50.938;7.286;2023-05-10T06:22:43;44.10;;;16.85;;
34497;SDS011;20744;50.938;7.286;2023-05-10T06:25:12;38.58;;;18.30;;
34497;SDS011;20744;50.938;7.286;2023-05-10T06:27:39;38.67;;;18.75;;
34497;SDS011;20744;50.938;7.286;2023-05-10T06:30:07;35.97;;;17.52;;
34497;SDS011;20744;50.938;7.286;2023-05-10T06:32:34;41.92;;;19.25;;
34497;SDS011;20744;50.938;7.286;2023-05-10T06:35:02;33.00;;;17.60;;
34497;SDS011;20744;50.938;7.286;2023-05-10T06:37:29;41.63;;;19.02;;
34497;SDS011;20744;50.938;7.286;2023-05-10T06:39:56;36.95;;;17.65;;
34497;SDS011;20744;50.938;7.286;2023-05-10T06:42:25;35.58;;;17.17;;
34497;SDS011;20744;50.938;7.286;2023-05-10T06:44:52;37.15;;;18.02;;
34497;SDS011;20744;50.938;7.286;2023-05-10T06:47:19;40.00;;;17.67;;
34497;SDS011;20744;50.938;7.286;2023-05-10T06:49:47;33.92;;;17.15;;
34497;SDS011;20744;50.938;7.286;2023-05-10T06:52:14;32.58;;;16.45;;
34497;SDS011;20744;50.938;7.286;2023-05-10T06:54:41;31.55;;;15.75;;
34497;SDS011;20744;50.938;7.286;2023-05-10T06:57:09;32.92;;;15.88;;
34497;SDS011;20744;50.938;7.286;2023-05-10T06:59:37;37.80;;;17.25;;
34497;SDS011;20744;50.938;7.286;2023-05-10T07:02:05;34.05;;;16.50;;
34497;SDS011;20744;50.938;7.286;2023-05-10T07:04:32;34.88;;;16.30;;
34497;SDS011;20744;50.938;7.286;2023-05-10T07:06:59;34.05;;;18.40;;
34497;SDS011;20744;50.938;7.286;2023-05-10T07:09:26;32.20;;;18.10;;
34497;SDS011;20744;50.938;7.286;2023-05-10T07:11:53;30.92;;;14.90;;
34497;SDS011;20744;50.938;7.286;2023-05-10T07:14:22;29.38;;;15.48;;
34497;SDS011;20744;50.938;7.286;2023-05-10T07:16:50;32.45;;;15.43;;
34497;SDS011;20744;50.938;7.286;2023-05-10T07:19:18;28.08;;;15.10;;
34497;SDS011;20744;50.938;7.286;2023-05-10T07:21:45;30.77;;;15.32;;
34497;SDS011;20744;50.938;7.286;2023-05-10T07:24:12;30.50;;;15.60;;
34497;SDS011;20744;50.938;7.286;2023-05-10T07:26:40;31.95;;;14.82;;
34497;SDS011;20744;50.938;7.286;2023-05-10T07:29:07;32.03;;;14.85;;
34497;SDS011;20744;50.938;7.286;2023-05-10T07:31:35;26.48;;;14.15;;
34497;SDS011;20744;50.938;7.286;2023-05-10T07:34:03;33.25;;;16.50;;
34497;SDS011;20744;50.938;7.286;2023-05-10T07:36:31;33.08;;;16.83;;
34497;SDS011;20744;50.938;7.286;2023-05-10T07:38:58;36.42;;;17.02;;
34497;SDS011;20744;50.938;7.286;2023-05-10T07:41:25;32.47;;;16.27;;
34497;SDS011;20744;50.938;7.286;2023-05-10T07:43:52;33.25;;;16.95;;
34497;SDS011;20744;50.938;7.286;2023-05-10T07:46:20;35.42;;;17.13;;
34497;SDS011;20744;50.938;7.286;2023-05-10T07:48:47;34.58;;;16.92;;
34497;SDS011;20744;50.938;7.286;2023-05-10T07:51:15;44.28;;;19.13;;
34497;SDS011;20744;50.938;7.286;2023-05-10T07:53:43;34.60;;;18.45;;
34497;SDS011;20744;50.938;7.286;2023-05-10T07:56:20;42.15;;;19.27;;
34497;SDS011;20744;50.938;7.286;2023-05-10T07:58:48;39.65;;;18.65;;
34497;SDS011;20744;50.938;7.286;2023-05-10T08:01:15;38.10;;;19.75;;
34497;SDS011;20744;50.938;7.286;2023-05-10T08:03:42;35.10;;;18.83;;
34497;SDS011;20744;50.938;7.286;2023-05-10T08:06:10;35.55;;;18.98;;
34497;SDS011;20744;50.938;7.286;2023-05-10T08:08:38;34.10;;;19.45;;
34497;SDS011;20744;50.938;7.286;2023-05-10T08:11:05;41.80;;;21.60;;
34497;SDS011;20744;50.938;7.286;2023-05-10T08:13:33;37.58;;;21.85;;
34497;SDS011;20744;50.938;7.286;2023-05-10T08:16:00;45.97;;;22.00;;
34497;SDS011;20744;50.938;7.286;2023-05-10T08:18:27;38.92;;;21.80;;
34497;SDS011;20744;50.938;7.286;2023-05-10T08:20:54;37.35;;;20.02;;
34497;SDS011;20744;50.938;7.286;2023-05-10T08:23:22;42.95;;;18.30;;
34497;SDS011;20744;50.938;7.286;2023-05-10T08:25:50;32.10;;;17.05;;
34497;SDS011;20744;50.938;7.286;2023-05-10T08:28:17;29.58;;;15.95;;
34497;SDS011;20744;50.938;7.286;2023-05-10T08:30:45;37.35;;;16.10;;
34497;SDS011;20744;50.938;7.286;2023-05-10T08:33:12;25.50;;;15.93;;
34497;SDS011;20744;50.938;7.286;2023-05-10T08:35:39;33.83;;;16.70;;
34497;SDS011;20744;50.938;7.286;2023-05-10T08:38:06;28.10;;;15.65;;
34497;SDS011;20744;50.938;7.286;2023-05-10T08:40:34;23.30;;;15.18;;
34497;SDS011;20744;50.938;7.286;2023-05-10T08:43:04;29.60;;;16.17;;
34497;SDS011;20744;50.938;7.286;2023-05-10T08:45:32;34.58;;;17.13;;
34497;SDS011;20744;50.938;7.286;2023-05-10T08:47:59;31.17;;;15.82;;
34497;SDS011;20744;50.938;7.286;2023-05-10T08:50:30;33.97;;;15.88;;
34497;SDS011;20744;50.938;7.286;2023-05-10T08:52:59;21.40;;;13.80;;
34497;SDS011;20744;50.938;7.286;2023-05-10T08:55:27;26.33;;;14.63;;
34497;SDS011;20744;50.938;7.286;2023-05-10T08:57:55;25.48;;;14.68;;
34497;SDS011;20744;50.938;7.286;2023-05-10T09:00:23;23.73;;;13.82;;
34497;SDS011;20744;50.938;7.286;2023-05-10T09:02:51;25.40;;;15.30;;
34497;SDS011;20744;50.938;7.286;2023-05-10T09:05:18;23.73;;;14.95;;
34497;SDS011;20744;50.938;7.286;2023-05-10T09:07:46;26.10;;;15.13;;
34497;SDS011;20744;50.938;7.286;2023-05-10T09:10:13;22.05;;;14.40;;
34497;SDS011;20744;50.938;7.286;2023-05-10T09:12:42;24.35;;;13.93;;
34497;SDS011;20744;50.938;7.286;2023-05-10T09:15:11;26.15;;;15.13;;
34497;SDS011;20744;50.938;7.286;2023-05-10T09:17:41;23.05;;;14.95;;
34497;SDS011;20744;50.938;7.286;2023-05-10T09:20:09;22.55;;;13.80;;
34497;SDS011;20744;50.938;7.286;2023-05-10T09:22:36;22.50;;;13.50;;
34497;SDS011;20744;50.938;7.286;2023-05-10T09:25:05;20.85;;;12.88;;
34497;SDS011;20744;50.938;7.286;2023-05-10T09:27:32;20.85;;;13.50;;
34497;SDS011;20744;50.938;7.286;2023-05-10T09:29:59;21.05;;;12.85;;
34497;SDS011;20744;50.938;7.286;2023-05-10T09:32:35;20.33;;;12.27;;
34497;SDS011;20744;50.938;7.286;2023-05-10T09:35:07;19.67;;;12.18;;
34497;SDS011;20744;50.938;7.286;2023-05-10T09:37:35;21.88;;;12.43;;
34497;SDS011;20744;50.938;7.286;2023-05-10T09:40:05;24.27;;;13.23;;
34497;SDS011;20744;50.938;7.286;2023-05-10T09:42:33;23.42;;;12.32;;
34497;SDS011;20744;50.938;7.286;2023-05-10T09:45:04;20.70;;;9.02;;
34497;SDS011;20744;50.938;7.286;2023-05-10T09:47:32;18.00;;;7.50;;
34497;SDS011;20744;50.938;7.286;2023-05-10T09:49:59;10.35;;;5.18;;
34497;SDS011;20744;50.938;7.286;2023-05-10T09:52:30;11.07;;;5.70;;
34497;SDS011;20744;50.938;7.286;2023-05-10T09:54:57;13.57;;;5.47;;
34497;SDS011;20744;50.938;7.286;2023-05-10T09:57:24;9.20;;;4.97;;
34497;SDS011;20744;50.938;7.286;2023-05-10T09:59:52;8.65;;;5.60;;
34497;SDS011;20744;50.938;7.286;2023-05-10T10:02:20;12.18;;;6.28;;
34497;SDS011;20744;50.938;7.286;2023-05-10T10:04:49;11.70;;;7.65;;
34497;SDS011;20744;50.938;7.286;2023-05-10T10:07:17;12.10;;;7.13;;
34497;SDS011;20744;50.938;7.286;2023-05-10T10:09:50;15.35;;;9.57;;
34497;SDS011;20744;50.938;7.286;2023-05-10T10:12:17;17.48;;;10.18;;
34497;SDS011;20744;50.938;7.286;2023-05-10T10:14:45;18.30;;;11.30;;
34497;SDS011;20744;50.938;7.286;2023-05-10T10:17:14;21.08;;;10.60;;
34497;SDS011;20744;50.938;7.286;2023-05-10T10:19:41;20.45;;;12.95;;
34497;SDS011;20744;50.938;7.286;2023-05-10T10:22:09;22.10;;;13.18;;
34497;SDS011;20744;50.938;7.286;2023-05-10T10:24:37;21.70;;;13.68;;
34497;SDS011;20744;50.938;7.286;2023-05-10T10:27:15;19.95;;;12.15;;
34497;SDS011;20744;50.938;7.286;2023-05-10T10:30:00;28.10;;;15.48;;
34497;SDS011;20744;50.938;7.286;2023-05-10T10:32:30;27.50;;;15.13;;
34497;SDS011;20744;50.938;7.286;2023-05-10T10:35:05;26.00;;;14.45;;
34497;SDS011;20744;50.938;7.286;2023-05-10T10:37:43;29.33;;;14.95;;
34497;SDS011;20744;50.938;7.286;2023-05-10T10:40:24;32.28;;;16.90;;
34497;SDS011;20744;50.938;7.286;2023-05-10T10:42:53;31.02;;;16.30;;
34497;SDS011;20744;50.938;7.286;2023-05-10T10:45:20;35.40;;;16.85;;
34497;SDS011;20744;50.938;7.286;2023-05-10T10:47:48;35.20;;;17.90;;
34497;SDS011;20744;50.938;7.286;2023-05-10T10:50:16;29.23;;;15.93;;
34497;SDS011;20744;50.938;7.286;2023-05-10T10:52:44;28.85;;;15.48;;
34497;SDS011;20744;50.938;7.286;2023-05-10T10:55:14;28.42;;;15.32;;
34497;SDS011;20744;50.938;7.286;2023-05-10T10:57:45;22.38;;;13.43;;
34497;SDS011;20744;50.938;7.286;2023-05-10T11:00:27;30.95;;;13.70;;
34497;SDS011;20744;50.938;7.286;2023-05-10T11:02:56;26.77;;;13.35;;
34497;SDS011;20744;50.938;7.286;2023-05-10T11:08:16;29.08;;;14.68;;
34497;SDS011;20744;50.938;7.286;2023-05-10T11:10:51;29.95;;;15.68;;
34497;SDS011;20744;50.938;7.286;2023-05-10T11:13:26;24.58;;;14.40;;
34497;SDS011;20744;50.938;7.286;2023-05-10T11:15:56;28.27;;;14.38;;
34497;SDS011;20744;50.938;7.286;2023-05-10T11:18:24;27.05;;;15.65;;
34497;SDS011;20744;50.938;7.286;2023-05-10T11:20:54;26.73;;;15.80;;
34497;SDS011;20744;50.938;7.286;2023-05-10T11:23:22;29.10;;;15.13;;
34497;SDS011;20744;50.938;7.286;2023-05-10T11:25:49;27.77;;;16.13;;
34497;SDS011;20744;50.938;7.286;2023-05-10T11:28:17;28.88;;;16.83;;
34497;SDS011;20744;50.938;7.286;2023-05-10T11:30:45;27.60;;;16.30;;
34497;SDS011;20744;50.938;7.286;2023-05-10T11:33:17;26.33;;;15.95;;
34497;SDS011;20744;50.938;7.286;2023-05-10T11:35:44;26.63;;;16.48;;
34497;SDS011;20744;50.938;7.286;2023-05-10T11:38:12;27.35;;;16.95;;
34497;SDS011;20744;50.938;7.286;2023-05-10T11:40:40;24.67;;;14.90;;
34497;SDS011;20744;50.938;7.286;2023-05-10T11:43:09;21.05;;;14.05;;
34497;SDS011;20744;50.938;7.286;2023-05-10T11:45:37;23.65;;;13.93;;
34497;SDS011;20744;50.938;7.286;2023-05-10T11:48:05;23.40;;;13.55;;
34497;SDS011;20744;50.938;7.286;2023-05-10T11:50:33;22.20;;;12.95;;
34497;SDS011;20744;50.938;7.286;2023-05-10T11:53:00;20.52;;;13.20;;
34497;SDS011;20744;50.938;7.286;2023-05-10T11:55:28;22.52;;;12.93;;
34497;SDS011;20744;50.938;7.286;2023-05-10T11:57:59;20.60;;;13.48;;
34497;SDS011;20744;50.938;7.286;2023-05-10T12:00:27;18.90;;;11.95;;
34497;SDS011;20744;50.938;7.286;2023-05-10T12:02:54;21.40;;;13.15;;
34497;SDS011;20744;50.938;7.286;2023-05-10T12:05:21;22.90;;;13.65;;
34497;SDS011;20744;50.938;7.286;2023-05-10T12:07:50;22.33;;;13.10;;
34497;SDS011;20744;50.938;7.286;2023-05-10T12:10:17;21.95;;;13.85;;
34497;SDS011;20744;50.938;7.286;2023-05-10T12:12:51;19.15;;;11.38;;
34497;SDS011;20744;50.938;7.286;2023-05-10T12:15:20;21.55;;;12.55;;
34497;SDS011;20744;50.938;7.286;2023-05-10T12:17:47;18.60;;;11.63;;
34497;SDS011;20744;50.938;7.286;2023-05-10T12:20:15;18.70;;;9.80;;
34497;SDS011;20744;50.938;7.286;2023-05-10T12:22:43;13.82;;;9.13;;
34497;SDS011;20744;50.938;7.286;2023-05-10T12:25:12;17.67;;;9.13;;
34497;SDS011;20744;50.938;7.286;2023-05-10T12:27:41;14.65;;;9.35;;
34497;SDS011;20744;50.938;7.286;2023-05-10T12:30:08;18.80;;;9.55;;
34497;SDS011;20744;50.938;7.286;2023-05-10T12:32:39;17.17;;;9.07;;
34497;SDS011;20744;50.938;7.286;2023-05-10T12:35:07;15.15;;;8.20;;
34497;SDS011;20744;50.938;7.286;2023-05-10T12:37:35;12.85;;;7.75;;
34497;SDS011;20744;50.938;7.286;2023-05-10T12:40:05;11.80;;;7.57;;
34497;SDS011;20744;50.938;7.286;2023-05-10T12:42:34;14.82;;;6.95;;
34497;SDS011;20744;50.938;7.286;2023-05-10T12:45:02;10.23;;;6.72;;
34497;SDS011;20744;50.938;7.286;2023-05-10T12:47:30;10.88;;;6.95;;
34497;SDS011;20744;50.938;7.286;2023-05-10T12:49:59;14.20;;;7.00;;
34497;SDS011;20744;50.938;7.286;2023-05-10T12:52:27;12.13;;;6.80;;
34497;SDS011;20744;50.938;7.286;2023-05-10T12:54:55;11.52;;;6.82;;
34497;SDS011;20744;50.938;7.286;2023-05-10T12:57:22;11.77;;;6.43;;
34497;SDS011;20744;50.938;7.286;2023-05-10T12:59:51;6.43;;;4.28;;
34497;SDS011;20744;50.938;7.286;2023-05-10T13:02:18;8.68;;;4.07;;
34497;SDS011;20744;50.938;7.286;2023-05-10T13:04:46;6.50;;;4.28;;
34497;SDS011;20744;50.938;7.286;2023-05-10T13:07:13;8.10;;;4.57;;
34497;SDS011;20744;50.938;7.286;2023-05-10T13:09:40;7.65;;;3.90;;
34497;SDS011;20744;50.938;7.286;2023-05-10T13:12:08;8.43;;;3.95;;
34497;SDS011;20744;50.938;7.286;2023-05-10T13:14:35;10.05;;;3.65;;
34497;SDS011;20744;50.938;7.286;2023-05-10T13:17:04;6.40;;;3.50;;
34497;SDS011;20744;50.938;7.286;2023-05-10T13:19:33;5.55;;;3.40;;
34497;SDS011;20744;50.938;7.286;2023-05-10T13:22:00;4.78;;;3.28;;
34497;SDS011;20744;50.938;7.286;2023-05-10T13:24:28;5.43;;;3.40;;
34497;SDS011;20744;50.938;7.286;2023-05-10T13:26:55;6.00;;;3.35;;
34497;SDS011;20744;50.938;7.286;2023-05-10T13:29:22;5.85;;;3.78;;
34497;SDS011;20744;50.938;7.286;2023-05-10T13:31:50;4.82;;;3.10;;
34497;SDS011;20744;50.938;7.286;2023-05-10T13:34:18;5.97;;;3.20;;
34497;SDS011;20744;50.938;7.286;2023-05-10T13:36:46;6.28;;;3.80;;
34497;SDS011;20744;50.938;7.286;2023-05-10T13:39:14;6.38;;;3.92;;
34497;SDS011;20744;50.938;7.286;2023-05-10T13:41:41;3.97;;;3.30;;
34497;SDS011;20744;50.938;7.286;2023-05-10T13:44:09;4.68;;;2.95;;
34497;SDS011;20744;50.938;7.286;2023-05-10T13:46:37;4.80;;;2.85;;
34497;SDS011;20744;50.938;7.286;2023-05-10T13:49:04;3.75;;;2.70;;
34497;SDS011;20744;50.938;7.286;2023-05-10T13:51:33;5.40;;;3.08;;
34497;SDS011;20744;50.938;7.286;2023-05-10T13:54:05;4.15;;;3.00;;
34497;SDS011;20744;50.938;7.286;2023-05-10T13:56:32;6.43;;;3.22;;
34497;SDS011;20744;50.938;7.286;2023-05-10T13:59:00;5.22;;;2.80;;
34497;SDS011;20744;50.938;7.286;2023-05-10T14:01:27;6.47;;;3.25;;
34497;SDS011;20744;50.938;7.286;2023-05-10T14:03:54;5.07;;;3.03;;
34497;SDS011;20744;50.938;7.286;2023-05-10T14:06:21;6.32;;;2.72;;
34497;SDS011;20744;50.938;7.286;2023-05-10T14:08:50;7.78;;;2.75;;
34497;SDS011;20744;50.938;7.286;2023-05-10T14:11:17;8.38;;;2.90;;
34497;SDS011;20744;50.938;7.286;2023-05-10T14:13:45;4.30;;;2.60;;
34497;SDS011;20744;50.938;7.286;2023-05-10T14:16:12;4.15;;;2.70;;
34497;SDS011;20744;50.938;7.286;2023-05-10T14:18:39;8.90;;;2.78;;
34497;SDS011;20744;50.938;7.286;2023-05-10T14:21:07;10.98;;;2.30;;
34497;SDS011;20744;50.938;7.286;2023-05-10T14:23:34;5.60;;;2.30;;
34497;SDS011;20744;50.938;7.286;2023-05-10T14:26:02;6.05;;;2.30;;
34497;SDS011;20744;50.938;7.286;2023-05-10T14:28:30;3.85;;;2.28;;
34497;SDS011;20744;50.938;7.286;2023-05-10T14:30:57;2.42;;;1.92;;
34497;SDS011;20744;50.938;7.286;2023-05-10T14:33:25;4.28;;;2.28;;
34497;SDS011;20744;50.938;7.286;2023-05-10T14:35:53;3.22;;;2.08;;
34497;SDS011;20744;50.938;7.286;2023-05-10T14:38:21;3.20;;;2.03;;
34497;SDS011;20744;50.938;7.286;2023-05-10T14:40:51;4.20;;;2.10;;